• Join FlightAware (Why Join?)
  • Login
  • US Flag 
05:52PM EDT


 

Airport Tracker/Info


-or-


 

Live Flight TrackerFlight Track Log ✈ N515KK ✈ 29-May-2013 ✈ KTCL - KMGM

Flight Track Log - Related Links

Times and Time Zones

All times are in EDT time to prevent confusion due to time zone crossing. See the N515KK flight status page for this flight to view local times or setup timezone preferences in your user account.

Time Position Orientation Groundspeed Altitude Reporting Facility
EDT Latitude Longitude Course Direction KTS MPH feet Rate Location/Type
06:57PM 33.2275 -87.5925 129° Southeast 157 181 1,400  Level Atlanta Center
06:58PM 33.1975 -87.5489 129° Southeast 168 193 3,700 2,040 Climbing Atlanta Center
06:58PM 33.1936 -87.5389 115° Southeast 206 237 4,000 1,260 Climbing Atlanta Center
06:59PM 33.1514 -87.4825 132° Southeast 223 257 5,300 1,860 Climbing Atlanta Center
07:00PM 33.0989 -87.4136 132° Southeast 250 288 7,800 2,340 Climbing Atlanta Center
07:01PM 33.0444 -87.3444 133° Southeast 275 316 10,000 2,220 Climbing Atlanta Center
07:02PM 32.9881 -87.2706 132° Southeast 287 330 12,300 2,220 Climbing Atlanta Center
07:03PM 32.9314 -87.1992 133° Southeast 297 342 14,500 1,260 Climbing Atlanta Center
07:04PM 32.8686 -87.1228 134° Southeast 310 357 14,900 -180 Climbing Atlanta Center
07:05PM 32.8081 -87.0417 132° Southeast 324 373 14,200 -1,200 Descending Atlanta Center
07:06PM 32.7408 -86.9653 136° Southeast 324 373 12,600 -1,440 Descending Atlanta Center
07:07PM 32.6650 -86.9108 149° Southeast 324 373 11,400 -1,320 Descending Atlanta Center
07:08PM 32.5928 -86.8717 155° Southeast 301 346 10,000 -1,140 Descending Atlanta Center
07:09PM 32.5250 -86.8275 151° Southeast 296 341 9,200 -960 Descending Atlanta Center
07:10PM 32.4633 -86.7789 146° Southeast 277 319 8,100 -1,800 Descending Atlanta Center
07:11PM 32.4083 -86.7256 141° Southeast 264 304 5,600 -2,100 Descending Atlanta Center
07:12PM 32.3636 -86.6628 130° Southeast 256 295 3,900 -1,740 Descending Atlanta Center
07:14PM 32.3251 -86.4978 121° Southeast  Level Estimated
07:21PM 32.3006 -86.3940 121° Southeast  Level Estimated
07:22PM 32.3006 -86.3940 121° Southeast  Level Estimated
07:23PM 32.3006 -86.3940 121° Southeast  Level Estimated
07:24PM 32.3006 -86.3940 121° Southeast  Level Estimated